createdAt,value
2022-10-17T00:00:13.058Z,16.68
2022-10-17T00:01:15.428Z,16.67
2022-10-17T00:02:17.612Z,16.66
2022-10-17T00:03:20.178Z,16.76
2022-10-17T00:04:22.422Z,16.74
2022-10-17T00:05:25.090Z,16.77
2022-10-17T00:06:27.202Z,16.78
2022-10-17T00:07:30.703Z,16.93
2022-10-17T00:08:33.063Z,16.78
2022-10-17T00:09:35.167Z,16.89
2022-10-17T00:10:37.627Z,16.96
2022-10-17T00:11:39.764Z,16.91
2022-10-17T00:12:41.914Z,16.97
2022-10-17T00:13:45.419Z,17.08
2022-10-17T00:14:47.536Z,16.97
2022-10-17T00:15:49.679Z,16.97
2022-10-17T00:16:51.819Z,16.95
2022-10-17T00:17:53.958Z,16.92
2022-10-17T00:18:56.998Z,17.08
2022-10-17T00:20:00.409Z,17.09
2022-10-17T00:21:02.725Z,17.03
2022-10-17T00:22:04.842Z,17.02
2022-10-17T00:23:06.948Z,16.99
2022-10-17T00:24:09.030Z,16.92
2022-10-17T00:25:11.410Z,16.99
2022-10-17T00:26:14.682Z,16.99
2022-10-17T00:27:16.819Z,17.02
2022-10-17T00:28:18.913Z,17.06
2022-10-17T00:29:21.038Z,17.08
2022-10-17T00:30:23.485Z,17.16
2022-10-17T00:31:26.232Z,17.15
2022-10-17T00:32:28.655Z,17.03
2022-10-17T00:33:32.176Z,17.17
2022-10-17T00:34:34.426Z,17.25
2022-10-17T00:35:36.650Z,17.15
2022-10-17T00:36:38.863Z,17.21
2022-10-17T00:37:40.970Z,17.30
2022-10-17T00:38:44.977Z,17.47
2022-10-17T00:39:47.071Z,17.36
2022-10-17T00:40:49.280Z,17.32
2022-10-17T00:41:51.521Z,17.37
2022-10-17T00:42:55.162Z,17.32
2022-10-17T00:44:31.672Z,17.72
2022-10-17T00:45:33.804Z,17.43
2022-10-17T00:46:38.359Z,17.60
2022-10-17T00:47:45.030Z,17.69
2022-10-17T00:48:49.722Z,17.72
2022-10-17T00:49:52.016Z,17.56
2022-10-17T00:50:54.874Z,17.63
2022-10-17T00:52:02.982Z,17.77
2022-10-17T00:53:07.809Z,17.69
2022-10-17T00:54:11.505Z,17.62
2022-10-17T00:55:31.518Z,17.91
2022-10-17T00:56:34.730Z,17.70
2022-10-17T00:57:37.194Z,17.57
2022-10-17T00:58:39.580Z,17.68
2022-10-17T00:59:45.382Z,17.88
2022-10-17T01:00:49.449Z,17.68
2022-10-17T01:02:00.708Z,17.93
2022-10-17T01:03:02.922Z,17.44
2022-10-17T01:04:05.278Z,17.53
2022-10-17T01:05:08.564Z,17.67
2022-10-17T01:06:10.714Z,17.64
2022-10-17T01:07:13.097Z,17.72
2022-10-17T01:08:15.772Z,17.69
2022-10-17T01:09:18.319Z,17.81
2022-10-17T01:11:44.831Z,17.65
2022-10-17T01:12:46.904Z,17.72
2022-10-17T01:13:56.402Z,17.90
2022-10-17T01:15:23.207Z,18.07
2022-10-17T01:16:37.110Z,17.98
2022-10-17T01:18:00.790Z,17.75
2022-10-17T01:19:17.966Z,17.64
2022-10-17T01:20:59.920Z,17.85
2022-10-17T01:22:07.998Z,17.52
2022-10-17T01:23:24.975Z,17.90
2022-10-17T01:24:49.151Z,17.90
2022-10-17T01:26:04.793Z,17.82
2022-10-17T01:27:45.324Z,18.01
2022-10-17T01:29:15.902Z,17.97
2022-10-17T01:30:41.171Z,17.95
2022-10-17T01:31:45.957Z,17.95
2022-10-17T01:32:58.134Z,18.06
2022-10-17T01:34:12.359Z,18.07
2022-10-17T01:35:23.792Z,18.05
2022-10-17T01:36:38.005Z,18.05
2022-10-17T01:37:49.111Z,18.06
2022-10-17T01:39:02.554Z,18.15
2022-10-17T01:40:20.195Z,18.23
2022-10-17T01:41:30.833Z,17.93
2022-10-17T01:42:35.941Z,17.91
2022-10-17T01:43:45.135Z,18.11
2022-10-17T01:44:58.283Z,18.26
2022-10-17T01:46:25.068Z,18.26
2022-10-17T01:47:31.375Z,18.21
2022-10-17T01:48:40.004Z,18.01
2022-10-17T01:49:45.264Z,17.99
2022-10-17T01:50:55.932Z,18.22
2022-10-17T01:52:03.413Z,18.15
2022-10-17T01:53:12.439Z,18.13
2022-10-17T01:54:21.417Z,17.91
2022-10-17T01:55:30.977Z,18.09
2022-10-17T01:56:35.614Z,18.03
2022-10-17T01:57:45.034Z,18.15
2022-10-17T01:58:55.427Z,18.21
2022-10-17T01:59:58.280Z,18.03
2022-10-17T02:01:05.548Z,18.05
2022-10-17T02:02:09.873Z,17.98
2022-10-17T02:03:17.340Z,18.02
2022-10-17T02:04:20.313Z,17.74
2022-10-17T02:05:28.706Z,18.00
2022-10-17T02:06:35.197Z,18.03
2022-10-17T02:07:37.571Z,17.75
2022-10-17T02:08:43.610Z,17.98
2022-10-17T02:09:45.763Z,17.73
2022-10-17T02:11:08.983Z,18.08
2022-10-17T02:12:18.362Z,18.03
2022-10-17T02:13:23.081Z,17.71
2022-10-17T02:14:34.919Z,17.77
2022-10-17T02:15:55.075Z,18.12
2022-10-17T02:17:23.813Z,18.10
2022-10-17T02:18:54.783Z,18.13
2022-10-17T02:20:20.143Z,18.22
2022-10-17T02:21:39.589Z,18.22
2022-10-17T02:22:53.708Z,18.18
2022-10-17T02:24:01.145Z,17.85
2022-10-17T02:25:21.652Z,18.20
2022-10-17T02:26:32.480Z,18.15
2022-10-17T02:27:56.524Z,18.16
2022-10-17T02:29:19.385Z,18.14
2022-10-17T02:30:36.967Z,17.69
2022-10-17T02:31:59.551Z,17.81
2022-10-17T02:33:10.173Z,17.80
2022-10-17T02:34:24.946Z,17.92
2022-10-17T02:35:31.827Z,17.76
2022-10-17T02:36:39.621Z,17.80
2022-10-17T02:37:44.519Z,17.63
2022-10-17T02:38:47.145Z,17.52
2022-10-17T02:39:51.157Z,17.65
2022-10-17T02:40:54.119Z,17.57
2022-10-17T02:41:59.057Z,17.60
2022-10-17T02:43:01.202Z,17.46
2022-10-17T02:44:06.449Z,17.58
2022-10-17T02:45:09.708Z,17.53
2022-10-17T02:46:21.033Z,17.65
2022-10-17T02:47:39.297Z,17.74
2022-10-17T02:48:47.492Z,17.63
2022-10-17T02:49:55.476Z,17.64
2022-10-17T02:51:05.313Z,17.66
2022-10-17T02:52:14.328Z,17.59
2022-10-17T02:53:26.490Z,17.52
2022-10-17T02:54:37.261Z,17.47
2022-10-17T02:55:48.315Z,17.59
2022-10-17T02:56:59.582Z,17.64
2022-10-17T02:58:10.152Z,17.59
2022-10-17T02:59:17.506Z,17.41
2022-10-17T03:00:22.255Z,17.42
2022-10-17T03:01:25.447Z,17.25
2022-10-17T03:02:28.639Z,17.25
2022-10-17T03:03:32.775Z,17.42
2022-10-17T03:04:37.309Z,17.24
2022-10-17T03:05:39.467Z,17.09
2022-10-17T03:06:41.730Z,17.22
2022-10-17T03:07:43.928Z,17.18
2022-10-17T03:08:46.039Z,17.22
2022-10-17T03:09:48.200Z,17.24
2022-10-17T03:10:51.876Z,17.09
2022-10-17T03:11:54.426Z,17.12
2022-10-17T03:12:56.646Z,17.09
2022-10-17T03:13:59.034Z,17.09
2022-10-17T03:15:02.690Z,17.12
2022-10-17T03:16:06.389Z,17.09
2022-10-17T03:17:11.009Z,17.12
2022-10-17T03:18:13.235Z,17.07
2022-10-17T03:19:15.360Z,17.11
2022-10-17T03:20:17.541Z,17.08
2022-10-17T03:21:20.706Z,17.12
2022-10-17T03:22:23.145Z,17.18
2022-10-17T03:23:25.296Z,17.21
2022-10-17T03:24:27.825Z,17.23
2022-10-17T03:25:30.096Z,17.18
2022-10-17T03:26:33.548Z,17.20
2022-10-17T03:27:35.742Z,17.20
2022-10-17T03:28:38.003Z,17.21
2022-10-17T03:29:40.493Z,17.27
2022-10-17T03:30:44.713Z,17.29
2022-10-17T03:31:47.066Z,17.28
2022-10-17T03:32:49.652Z,17.30
2022-10-17T03:33:52.124Z,17.31
2022-10-17T03:34:54.265Z,17.25
2022-10-17T03:35:56.410Z,17.26
2022-10-17T03:36:58.583Z,17.26
2022-10-17T03:38:03.229Z,17.25
2022-10-17T03:39:05.966Z,17.26
2022-10-17T03:40:08.554Z,17.33
2022-10-17T03:41:10.768Z,17.22
2022-10-17T03:42:13.980Z,17.30
2022-10-17T03:43:16.118Z,17.31
2022-10-17T03:44:18.283Z,17.34
2022-10-17T03:45:20.369Z,17.26
2022-10-17T03:46:23.666Z,17.27
2022-10-17T03:47:25.922Z,17.23
2022-10-17T03:48:30.244Z,17.41
2022-10-17T03:49:32.424Z,17.15
2022-10-17T03:50:34.549Z,17.21
2022-10-17T03:51:37.636Z,17.27
2022-10-17T03:52:48.805Z,17.45
2022-10-17T03:53:51.174Z,17.18
2022-10-17T03:54:53.349Z,17.16
2022-10-17T03:55:55.526Z,17.16
2022-10-17T03:56:58.461Z,17.13
2022-10-17T03:58:00.585Z,17.13
2022-10-17T03:59:03.559Z,17.13
2022-10-17T04:00:09.306Z,17.22
2022-10-17T04:01:17.743Z,17.26
2022-10-17T04:02:20.983Z,17.13
2022-10-17T04:03:24.439Z,17.10
2022-10-17T04:04:27.338Z,17.12
2022-10-17T04:05:29.497Z,17.06
2022-10-17T04:06:32.473Z,17.04
2022-10-17T04:07:37.265Z,16.99
2022-10-17T04:08:42.550Z,17.17
2022-10-17T04:09:48.567Z,16.94
2022-10-17T04:11:03.057Z,17.23
2022-10-17T04:12:05.986Z,17.00
2022-10-17T04:13:08.828Z,17.04
2022-10-17T04:14:11.036Z,17.04
2022-10-17T04:15:14.919Z,17.02
2022-10-17T04:16:17.422Z,17.04
2022-10-17T04:17:38.157Z,17.44
2022-10-17T04:18:42.578Z,17.20
2022-10-17T04:19:44.712Z,17.03
2022-10-17T04:20:49.204Z,17.07
2022-10-17T04:21:51.641Z,17.04
2022-10-17T04:22:54.943Z,17.03
2022-10-17T04:24:00.722Z,17.28
2022-10-17T04:25:32.270Z,17.02
2022-10-17T04:26:36.974Z,17.02
2022-10-17T04:27:39.143Z,17.01
2022-10-17T04:28:41.828Z,16.99
2022-10-17T04:29:44.271Z,17.00
2022-10-17T04:31:01.027Z,17.08
2022-10-17T04:32:08.103Z,17.12
2022-10-17T04:33:31.906Z,17.25
2022-10-17T04:34:34.038Z,17.11
2022-10-17T04:35:36.281Z,17.12
2022-10-17T04:36:41.162Z,17.03
2022-10-17T04:37:43.684Z,17.03
2022-10-17T04:38:52.136Z,17.06
2022-10-17T04:39:54.729Z,17.09
2022-10-17T04:40:58.570Z,17.16
2022-10-17T04:42:00.653Z,17.08
2022-10-17T04:43:02.775Z,17.10
2022-10-17T04:44:11.298Z,17.23
2022-10-17T04:45:17.414Z,17.09
2022-10-17T04:46:20.796Z,17.10
2022-10-17T04:47:23.978Z,17.08
2022-10-17T04:48:26.349Z,17.09
2022-10-17T04:49:28.531Z,17.12
2022-10-17T04:50:35.637Z,17.11
2022-10-17T04:51:55.054Z,17.08
2022-10-17T04:53:00.653Z,17.12
2022-10-17T04:54:02.852Z,17.12
2022-10-17T04:55:06.144Z,17.32
2022-10-17T04:56:10.202Z,17.35
2022-10-17T04:57:12.594Z,17.24
2022-10-17T04:58:16.468Z,17.27
2022-10-17T04:59:18.819Z,17.21
2022-10-17T05:00:23.444Z,17.28
2022-10-17T05:01:34.902Z,17.25
2022-10-17T05:02:37.041Z,17.12
2022-10-17T05:03:40.359Z,17.23
2022-10-17T05:04:42.775Z,17.21
2022-10-17T05:05:47.115Z,17.17
2022-10-17T05:06:49.236Z,17.13
2022-10-17T05:08:14.269Z,17.26
2022-10-17T05:09:17.057Z,17.27
2022-10-17T05:10:19.460Z,17.28
2022-10-17T05:11:25.240Z,17.26
2022-10-17T05:12:27.566Z,17.24
2022-10-17T05:13:30.103Z,17.23
2022-10-17T05:14:32.265Z,17.27
2022-10-17T05:15:35.516Z,17.38
2022-10-17T05:16:38.140Z,17.21
2022-10-17T05:17:40.832Z,17.23
2022-10-17T05:18:42.932Z,17.18
2022-10-17T05:19:45.182Z,17.17
2022-10-17T05:20:47.290Z,17.25
2022-10-17T05:21:49.437Z,17.30
2022-10-17T05:22:51.746Z,17.28
2022-10-17T05:23:54.867Z,17.24
2022-10-17T05:24:57.683Z,17.25
2022-10-17T05:25:59.988Z,17.30
2022-10-17T05:27:02.509Z,17.29
2022-10-17T05:28:04.989Z,17.25
2022-10-17T05:29:07.308Z,17.25
2022-10-17T05:30:13.355Z,17.27
2022-10-17T05:31:16.170Z,17.30
2022-10-17T05:32:18.565Z,17.31
2022-10-17T05:33:20.754Z,17.28
2022-10-17T05:34:22.975Z,17.30
2022-10-17T05:35:25.681Z,17.29
2022-10-17T05:36:28.700Z,17.44
2022-10-17T05:37:31.828Z,17.55
2022-10-17T05:38:35.386Z,17.42
2022-10-17T05:39:38.067Z,17.44
2022-10-17T05:40:40.476Z,17.47
2022-10-17T05:41:42.602Z,17.44
2022-10-17T05:42:48.746Z,17.76
2022-10-17T05:43:52.466Z,17.52
2022-10-17T05:45:00.055Z,17.46
2022-10-17T05:46:06.709Z,17.71
2022-10-17T05:47:09.862Z,17.56
2022-10-17T05:48:11.995Z,17.51
2022-10-17T05:49:19.667Z,17.51
2022-10-17T05:50:35.887Z,17.63
2022-10-17T05:51:43.503Z,17.53
2022-10-17T05:52:47.168Z,17.59
2022-10-17T05:53:51.527Z,17.55
2022-10-17T05:54:58.886Z,17.59
2022-10-17T05:56:04.046Z,17.75
2022-10-17T05:57:07.735Z,17.55
2022-10-17T05:58:17.693Z,17.62
2022-10-17T05:59:29.137Z,17.62
2022-10-17T06:00:41.602Z,17.55
2022-10-17T06:01:43.814Z,17.53
2022-10-17T06:02:46.443Z,17.58
2022-10-17T06:03:50.484Z,17.51
2022-10-17T06:04:52.693Z,17.61
2022-10-17T06:05:56.840Z,17.66
2022-10-17T06:06:59.148Z,17.63
2022-10-17T06:08:02.205Z,17.68
2022-10-17T06:09:08.210Z,17.89
2022-10-17T06:10:16.225Z,17.71
2022-10-17T06:11:18.368Z,17.69
2022-10-17T06:12:21.215Z,17.84
2022-10-17T06:13:23.670Z,17.81
2022-10-17T06:14:27.314Z,17.70
2022-10-17T06:15:35.069Z,17.69
2022-10-17T06:16:41.575Z,17.84
2022-10-17T06:17:43.720Z,17.88
2022-10-17T06:18:45.962Z,17.93
2022-10-17T06:19:48.139Z,18.03
2022-10-17T06:20:51.081Z,18.17
2022-10-17T06:21:54.639Z,18.14
2022-10-17T06:22:58.389Z,18.25
2022-10-17T06:24:18.681Z,18.35
2022-10-17T06:25:21.318Z,18.25
2022-10-17T06:26:23.522Z,18.46
2022-10-17T06:27:25.878Z,18.53
2022-10-17T06:28:28.138Z,18.55
2022-10-17T06:29:30.391Z,18.72
2022-10-17T06:30:32.565Z,18.77
2022-10-17T06:31:35.065Z,18.83
2022-10-17T06:32:37.326Z,18.84
2022-10-17T06:33:40.781Z,18.74
2022-10-17T06:34:43.638Z,18.86
2022-10-17T06:35:52.591Z,19.27
2022-10-17T06:37:57.217Z,18.97
2022-10-17T06:38:59.831Z,19.10
2022-10-17T06:40:12.312Z,19.30
2022-10-17T06:41:16.693Z,19.46
2022-10-17T06:42:18.909Z,19.38
2022-10-17T06:43:41.332Z,19.39
2022-10-17T06:45:02.086Z,19.40
2022-10-17T06:46:29.722Z,19.29
2022-10-17T06:47:38.004Z,19.87
2022-10-17T06:49:00.242Z,19.64
2022-10-17T06:50:15.932Z,19.99
2022-10-17T06:51:23.531Z,19.97
2022-10-17T06:52:29.830Z,19.98
2022-10-17T06:53:50.539Z,20.03
2022-10-17T06:55:10.991Z,19.97
2022-10-17T06:56:25.004Z,19.72
2022-10-17T06:58:05.275Z,19.68
2022-10-17T06:59:33.133Z,19.55
2022-10-17T07:01:04.120Z,19.80
2022-10-17T07:02:06.563Z,19.50
2022-10-17T07:03:08.891Z,19.44
2022-10-17T07:04:11.422Z,19.43
2022-10-17T07:05:13.550Z,19.41
2022-10-17T07:06:15.848Z,19.42
2022-10-17T07:07:19.377Z,19.68
2022-10-17T07:08:22.475Z,19.65
2022-10-17T07:09:25.023Z,19.60
2022-10-17T07:10:27.126Z,19.66
2022-10-17T07:11:29.410Z,19.69
2022-10-17T07:12:31.529Z,20.04
2022-10-17T07:13:38.843Z,20.52
2022-10-17T07:14:42.162Z,21.00
2022-10-17T07:15:44.271Z,21.34
2022-10-17T07:16:46.554Z,21.28
2022-10-17T07:17:54.857Z,21.32
2022-10-17T07:18:57.092Z,21.14
2022-10-17T07:19:59.243Z,21.33
2022-10-17T07:21:01.957Z,21.28
2022-10-17T07:22:04.567Z,20.94
2022-10-17T07:23:07.773Z,21.06
2022-10-17T07:24:11.662Z,20.75
2022-10-17T07:25:16.444Z,20.80
2022-10-17T07:26:23.956Z,20.80
2022-10-17T07:27:26.252Z,20.73
2022-10-17T07:28:29.270Z,20.77
2022-10-17T07:29:34.869Z,20.66
2022-10-17T07:31:03.582Z,20.79
2022-10-17T07:32:08.483Z,20.58
2022-10-17T07:33:10.721Z,20.56
2022-10-17T07:34:12.871Z,20.43
2022-10-17T07:35:15.114Z,20.64
2022-10-17T07:36:17.789Z,20.79
2022-10-17T07:37:19.894Z,20.64
2022-10-17T07:38:28.718Z,20.77
2022-10-17T07:39:30.874Z,20.93
2022-10-17T07:40:33.272Z,21.07
2022-10-17T07:41:35.482Z,21.40
2022-10-17T07:43:46.535Z,21.72
2022-10-17T07:44:51.091Z,21.81
2022-10-17T07:45:54.096Z,22.06
2022-10-17T07:46:56.213Z,21.93
2022-10-17T07:47:58.982Z,21.85
2022-10-17T07:49:01.184Z,21.72
2022-10-17T07:50:05.592Z,21.93
2022-10-17T07:51:09.387Z,21.93
2022-10-17T07:52:15.309Z,21.74
2022-10-17T07:53:17.953Z,21.89
2022-10-17T07:54:20.039Z,21.88
2022-10-17T07:55:22.165Z,21.97
2022-10-17T07:56:24.803Z,21.92
2022-10-17T07:57:26.963Z,22.13
2022-10-17T07:58:31.232Z,22.02
2022-10-17T07:59:34.964Z,22.46
2022-10-17T08:00:37.204Z,22.44
2022-10-17T08:01:39.493Z,22.53
2022-10-17T08:02:41.653Z,22.65
2022-10-17T08:03:44.850Z,23.14
2022-10-17T08:04:46.959Z,22.84
2022-10-17T08:05:49.196Z,23.10
2022-10-17T08:06:56.367Z,23.27
2022-10-17T08:08:02.718Z,23.40
2022-10-17T08:09:04.852Z,23.40
2022-10-17T08:11:13.321Z,23.50
2022-10-17T08:12:15.668Z,23.12
2022-10-17T08:13:17.931Z,23.28
2022-10-17T08:14:20.121Z,23.12
2022-10-17T08:15:25.661Z,23.28
2022-10-17T08:16:28.884Z,23.10
2022-10-17T08:17:31.086Z,23.38
2022-10-17T08:18:33.913Z,23.23
2022-10-17T08:19:40.410Z,23.31
2022-10-17T08:20:42.635Z,23.08
2022-10-17T08:21:46.814Z,22.74
2022-10-17T08:22:53.603Z,23.09
2022-10-17T08:23:55.909Z,23.13
2022-10-17T08:24:58.321Z,23.54
2022-10-17T08:26:02.149Z,23.78
2022-10-17T08:27:11.178Z,23.76
2022-10-17T08:28:13.371Z,24.59
2022-10-17T08:29:16.622Z,24.93
2022-10-17T08:30:18.721Z,25.16
2022-10-17T08:31:21.230Z,25.48
2022-10-17T08:32:28.113Z,25.77
2022-10-17T08:33:30.457Z,25.87
2022-10-17T08:34:32.675Z,26.35
2022-10-17T08:35:35.052Z,26.46
2022-10-17T08:36:37.226Z,26.84
2022-10-17T08:37:39.322Z,27.03
2022-10-17T08:38:43.676Z,27.17
2022-10-17T08:39:45.983Z,27.30
2022-10-17T08:40:49.514Z,27.30
2022-10-17T08:42:19.534Z,27.33
2022-10-17T08:43:49.258Z,27.20
2022-10-17T08:45:06.982Z,27.80
2022-10-17T08:46:09.891Z,27.58
2022-10-17T08:47:19.873Z,27.41
2022-10-17T08:48:25.910Z,26.85
2022-10-17T08:49:52.504Z,27.02
2022-10-17T08:51:04.191Z,26.87
2022-10-17T08:52:15.027Z,26.32
2022-10-17T08:53:28.031Z,26.30
2022-10-17T08:54:50.859Z,25.79
2022-10-17T08:55:54.629Z,25.93
2022-10-17T08:56:57.463Z,25.83
2022-10-17T08:58:00.016Z,25.53
2022-10-17T08:59:05.586Z,26.09
2022-10-17T09:00:16.980Z,25.48
2022-10-17T09:01:24.923Z,25.19
2022-10-17T09:02:49.176Z,25.83
2022-10-17T09:04:10.078Z,25.66
2022-10-17T09:05:15.342Z,25.98
2022-10-17T09:06:30.024Z,26.08
2022-10-17T09:07:49.958Z,26.02
2022-10-17T09:09:14.995Z,25.88
2022-10-17T09:10:32.117Z,25.78
2022-10-17T09:11:48.665Z,25.89
2022-10-17T09:13:09.829Z,25.88
2022-10-17T09:14:33.938Z,26.18
2022-10-17T09:15:51.254Z,26.53
2022-10-17T09:17:15.654Z,26.65
2022-10-17T09:18:27.764Z,26.08
2022-10-17T09:19:36.371Z,26.37
2022-10-17T09:20:47.023Z,27.06
2022-10-17T09:21:51.767Z,26.92
2022-10-17T09:22:58.903Z,27.22
2022-10-17T09:24:09.845Z,26.44
2022-10-17T09:25:20.203Z,26.32
2022-10-17T09:26:24.544Z,25.80
2022-10-17T09:27:41.567Z,25.11
2022-10-17T09:28:44.086Z,25.39
2022-10-17T09:29:49.500Z,25.71
2022-10-17T09:31:18.170Z,25.77
2022-10-17T09:32:25.075Z,25.66
2022-10-17T09:33:54.189Z,25.58
2022-10-17T09:34:56.929Z,25.59
2022-10-17T09:36:00.392Z,25.52
2022-10-17T09:37:02.962Z,25.36
2022-10-17T09:38:05.461Z,25.34
2022-10-17T09:39:17.823Z,25.53
2022-10-17T09:40:26.987Z,25.25
2022-10-17T09:41:45.545Z,25.21
2022-10-17T09:42:51.260Z,25.28
2022-10-17T09:43:56.681Z,25.60
2022-10-17T09:45:10.962Z,25.54
2022-10-17T09:46:22.588Z,25.66
2022-10-17T09:47:31.971Z,25.19
2022-10-17T09:48:39.993Z,24.73
2022-10-17T09:49:45.695Z,24.41
2022-10-17T09:50:57.806Z,24.33
2022-10-17T09:52:49.565Z,25.05
2022-10-17T09:53:59.513Z,24.40
2022-10-17T09:55:15.876Z,24.54
2022-10-17T09:56:19.573Z,24.22
2022-10-17T09:57:22.209Z,23.86
2022-10-17T09:58:40.587Z,24.36
2022-10-17T09:59:46.047Z,24.46
2022-10-17T10:00:49.785Z,24.02
2022-10-17T10:02:07.178Z,23.91
2022-10-17T10:03:26.461Z,23.83
2022-10-17T10:04:30.349Z,23.57
2022-10-17T10:05:39.976Z,24.15
2022-10-17T10:07:01.733Z,24.29
2022-10-17T10:08:12.723Z,24.13
2022-10-17T10:09:22.454Z,24.12
2022-10-17T10:10:28.117Z,24.33
2022-10-17T10:11:50.290Z,24.55
2022-10-17T10:13:16.190Z,24.71
2022-10-17T10:14:24.391Z,24.79
2022-10-17T10:15:34.014Z,24.55
2022-10-17T10:16:42.460Z,24.19
2022-10-17T10:17:44.630Z,23.80
2022-10-17T10:18:50.132Z,24.08
2022-10-17T10:19:53.811Z,24.23
2022-10-17T10:21:06.734Z,24.36
2022-10-17T10:22:16.882Z,24.16
2022-10-17T10:23:22.169Z,23.84
2022-10-17T10:24:30.659Z,24.27
2022-10-17T10:25:35.009Z,24.38
2022-10-17T10:26:46.084Z,24.70
2022-10-17T10:27:48.269Z,24.67
2022-10-17T10:28:57.915Z,25.18
2022-10-17T10:30:00.391Z,25.12
2022-10-17T10:31:06.152Z,25.26
2022-10-17T10:32:32.362Z,25.52
2022-10-17T10:33:49.371Z,25.60
2022-10-17T10:35:31.386Z,25.58
2022-10-17T10:36:44.563Z,25.81
2022-10-17T10:37:50.926Z,25.45
2022-10-17T10:38:57.690Z,25.00
2022-10-17T10:40:04.168Z,25.12
2022-10-17T10:41:11.315Z,24.69
2022-10-17T10:42:30.495Z,25.05
2022-10-17T10:43:40.922Z,24.81
2022-10-17T10:44:43.102Z,24.69
2022-10-17T10:45:49.090Z,24.57
2022-10-17T10:47:18.191Z,25.30
2022-10-17T10:48:36.486Z,25.46
2022-10-17T10:49:39.418Z,24.66
2022-10-17T10:50:49.241Z,24.91
2022-10-17T10:51:52.274Z,24.59
2022-10-17T10:53:16.016Z,25.04
2022-10-17T10:54:26.525Z,25.12
2022-10-17T10:55:35.705Z,25.14
2022-10-17T10:56:41.622Z,24.67
2022-10-17T10:57:46.773Z,24.84
2022-10-17T10:58:54.681Z,25.10
2022-10-17T11:00:12.413Z,25.21
2022-10-17T11:01:46.233Z,25.00
2022-10-17T11:03:19.462Z,24.48
2022-10-17T11:04:46.413Z,24.48
2022-10-17T11:05:54.959Z,24.14
2022-10-17T11:07:15.289Z,23.63
2022-10-17T11:08:27.027Z,23.42
2022-10-17T11:09:54.567Z,22.97
2022-10-17T11:11:18.313Z,22.58
2022-10-17T11:12:34.277Z,22.34
2022-10-17T11:13:43.190Z,22.14
2022-10-17T11:14:53.162Z,22.08
2022-10-17T11:15:59.566Z,21.83
2022-10-17T11:17:13.586Z,22.15
2022-10-17T11:18:35.227Z,22.31
2022-10-17T11:19:56.400Z,22.63
2022-10-17T11:21:16.558Z,22.93
2022-10-17T11:22:29.341Z,22.92
2022-10-17T11:24:02.898Z,22.56
2022-10-17T11:25:13.279Z,22.41
2022-10-17T11:26:46.571Z,22.60
2022-10-17T11:27:48.703Z,22.41
2022-10-17T11:28:50.878Z,22.36
2022-10-17T11:29:53.158Z,22.27
2022-10-17T11:31:03.320Z,22.65
2022-10-17T11:32:20.972Z,22.90
2022-10-17T11:33:31.715Z,22.82
2022-10-17T11:34:37.921Z,22.88
2022-10-17T11:35:45.607Z,22.76
2022-10-17T11:36:52.767Z,22.44
2022-10-17T11:38:18.847Z,22.58
2022-10-17T11:39:30.598Z,22.10
2022-10-17T11:40:38.616Z,22.25
2022-10-17T11:41:59.819Z,22.38
2022-10-17T11:43:14.719Z,22.29
2022-10-17T11:44:23.213Z,22.22
2022-10-17T11:45:27.986Z,21.94
2022-10-17T11:46:32.134Z,21.85
2022-10-17T11:47:47.779Z,22.29
2022-10-17T11:49:05.046Z,22.44
2022-10-17T11:52:01.668Z,22.11
2022-10-17T11:53:19.194Z,22.14
2022-10-17T11:54:35.129Z,22.17
2022-10-17T11:55:38.408Z,21.94
2022-10-17T11:57:18.215Z,22.29
2022-10-17T11:58:35.807Z,22.19
2022-10-17T11:59:47.126Z,21.99
2022-10-17T12:00:49.817Z,21.89
2022-10-17T12:02:01.168Z,22.22
2022-10-17T12:03:12.369Z,21.95
2022-10-17T12:04:38.104Z,21.92
2022-10-17T12:05:58.642Z,22.34
2022-10-17T12:07:26.927Z,22.47
2022-10-17T12:08:37.782Z,22.60
2022-10-17T12:09:48.953Z,22.74
2022-10-17T12:11:28.859Z,22.72
2022-10-17T12:12:33.412Z,22.53
2022-10-17T12:13:41.190Z,22.77
2022-10-17T12:14:45.730Z,22.64
2022-10-17T12:15:47.862Z,22.57
2022-10-17T12:16:50.803Z,22.63
2022-10-17T12:18:02.253Z,22.91
2022-10-17T12:19:06.419Z,22.61
2022-10-17T12:20:51.014Z,22.64
2022-10-17T12:22:02.457Z,22.72
2022-10-17T12:23:14.504Z,22.62
2022-10-17T12:24:42.200Z,22.67
2022-10-17T12:26:04.829Z,22.87
2022-10-17T12:27:45.762Z,22.87
2022-10-17T12:28:48.361Z,22.68
2022-10-17T12:29:58.672Z,22.62
2022-10-17T12:31:15.733Z,22.96
2022-10-17T12:32:17.928Z,22.70
2022-10-17T12:33:26.758Z,22.82
2022-10-17T12:34:28.927Z,22.51
2022-10-17T12:35:33.344Z,22.38
2022-10-17T12:36:35.584Z,22.27
2022-10-17T12:37:55.151Z,22.73
2022-10-17T12:39:02.613Z,22.61
2022-10-17T12:40:36.677Z,22.33
2022-10-17T12:41:38.754Z,22.16
2022-10-17T12:42:49.362Z,22.43
2022-10-17T12:43:53.503Z,22.26
2022-10-17T12:44:55.655Z,21.94
2022-10-17T12:45:59.756Z,22.05
2022-10-17T12:47:09.418Z,22.11
2022-10-17T12:48:11.854Z,21.89
2022-10-17T12:49:40.276Z,21.98
2022-10-17T12:51:34.698Z,21.99
2022-10-17T12:52:32.830Z,22.18
2022-10-17T12:53:47.314Z,22.02
2022-10-17T12:55:12.501Z,21.93
2022-10-17T12:56:21.556Z,21.78
2022-10-17T12:57:45.085Z,21.93
2022-10-17T12:58:50.131Z,21.98
2022-10-17T12:59:56.706Z,21.56
2022-10-17T13:02:27.224Z,21.87
2022-10-17T13:03:33.420Z,21.98
2022-10-17T13:04:36.956Z,21.96
2022-10-17T13:05:43.925Z,21.97
2022-10-17T13:06:49.399Z,22.01
2022-10-17T13:07:53.385Z,21.73
2022-10-17T13:09:04.097Z,21.87
2022-10-17T13:10:18.104Z,21.77
2022-10-17T13:11:28.920Z,22.03
2022-10-17T13:12:36.525Z,22.16
2022-10-17T13:13:49.395Z,22.09
2022-10-17T13:14:53.954Z,21.88
2022-10-17T13:15:56.135Z,21.78
2022-10-17T13:17:04.631Z,21.96
2022-10-17T13:18:06.770Z,21.50
2022-10-17T13:19:23.138Z,21.62
2022-10-17T13:20:31.341Z,21.63
2022-10-17T13:21:34.129Z,21.27
2022-10-17T13:22:44.880Z,21.39
2022-10-17T13:23:49.272Z,21.66
2022-10-17T13:24:53.259Z,21.51
2022-10-17T13:26:19.970Z,21.53
2022-10-17T13:27:26.924Z,21.05
2022-10-17T13:28:29.151Z,21.13
2022-10-17T13:29:32.987Z,21.21
2022-10-17T13:30:36.631Z,20.87
2022-10-17T13:31:41.059Z,21.03
2022-10-17T13:32:45.065Z,21.12
2022-10-17T13:33:47.308Z,21.09
2022-10-17T13:35:09.969Z,21.55
2022-10-17T13:36:19.662Z,21.64
2022-10-17T13:37:21.977Z,21.45
2022-10-17T13:38:28.830Z,21.47
2022-10-17T13:39:52.783Z,21.70
2022-10-17T13:41:05.859Z,21.45
2022-10-17T13:42:27.489Z,21.64
2022-10-17T13:43:32.261Z,21.47
2022-10-17T13:44:37.081Z,21.15
2022-10-17T13:45:40.297Z,21.16
2022-10-17T13:46:43.585Z,21.19
2022-10-17T13:47:46.083Z,21.13
2022-10-17T13:48:49.508Z,21.17
2022-10-17T13:49:55.200Z,21.31
2022-10-17T13:51:03.027Z,21.57
2022-10-17T13:52:14.156Z,21.40
2022-10-17T13:53:36.184Z,21.56
2022-10-17T13:54:44.938Z,21.49
2022-10-17T13:56:15.712Z,21.72
2022-10-17T13:57:22.907Z,21.23
2022-10-17T13:58:25.958Z,21.06
2022-10-17T13:59:36.878Z,21.39
2022-10-17T14:00:39.137Z,21.13
2022-10-17T14:01:41.333Z,21.09
2022-10-17T14:02:43.636Z,21.09
2022-10-17T14:03:49.019Z,21.19
2022-10-17T14:05:16.730Z,21.46
2022-10-17T14:06:24.569Z,21.38
2022-10-17T14:07:58.005Z,21.16
2022-10-17T14:09:00.558Z,21.33
2022-10-17T14:10:06.304Z,20.92
2022-10-17T14:11:21.907Z,21.27
2022-10-17T14:12:24.105Z,20.93
2022-10-17T14:13:30.125Z,21.40
2022-10-17T14:14:51.676Z,21.20
2022-10-17T14:15:59.382Z,21.34
2022-10-17T14:17:01.651Z,21.26
2022-10-17T14:18:09.171Z,21.23
2022-10-17T14:19:27.864Z,21.56
2022-10-17T14:22:14.320Z,20.85
2022-10-17T14:23:43.261Z,21.11
2022-10-17T14:24:45.772Z,20.78
2022-10-17T14:25:48.242Z,21.00
2022-10-17T14:26:53.699Z,20.92
2022-10-17T14:28:15.202Z,20.92
2022-10-17T14:29:32.076Z,21.28
2022-10-17T14:30:55.825Z,20.63
2022-10-17T14:32:13.701Z,21.00
2022-10-17T14:33:37.388Z,21.27
2022-10-17T14:34:42.199Z,21.09
2022-10-17T14:35:55.421Z,21.42
2022-10-17T14:36:57.873Z,20.99
2022-10-17T14:38:05.822Z,21.08
2022-10-17T14:39:20.863Z,21.36
2022-10-17T14:40:28.234Z,21.45
2022-10-17T14:41:42.891Z,21.19
2022-10-17T14:42:46.912Z,20.86
2022-10-17T14:43:54.987Z,21.08
2022-10-17T14:45:06.825Z,21.46
2022-10-17T14:46:15.758Z,21.53
2022-10-17T14:47:42.175Z,21.28
2022-10-17T14:48:44.002Z,21.17
2022-10-17T14:49:50.187Z,21.21
2022-10-17T14:51:08.476Z,21.34